< Cyclone 199106 1991 Season Cyclone 199108 >
Cyclone 199107 (ERROL)
General InformationDetailed Track InformationTrack Information on Google MapsList of All Images || ResourceGoogle EarthGE AnimationAtom FeedGeoJSON
Detalied Best Track Wind (Time Zone = UTC)
Year Month Day Hour Lat. Long. Wind (kt) Gust (kt) Direc. of Major Storm Axis Radius of Major Storm Axis (nm) Radius of Minor Storm Axis (nm) Direc. of Major Gale Axis Radius of Major Gale Axis (nm) Radius of Minor Gale Axis (nm) Image
1991 3 23 12 -10.9 99.6 31 -1 symmetric - - symmetric - - Image
1991 3 23 18 -10.9 99.6 35 -1 symmetric - - symmetric - - Image
1991 3 24 00 -10.9 99.5 37 -1 symmetric - - symmetric - - Image
1991 3 24 06 -10.9 99.5 41 -1 symmetric - - symmetric - - Image
1991 3 24 12 -10.7 99.0 49 -1 symmetric - - symmetric - - Image
1991 3 24 18 -10.6 99.0 58 -1 symmetric - - symmetric - - Image
1991 3 25 00 -10.4 99.0 66 -1 symmetric - - symmetric - - Image
1991 3 25 06 -10.5 99.4 74 -1 symmetric - - symmetric - - Image
1991 3 25 12 -10.5 99.7 80 -1 symmetric - - symmetric - - Image
1991 3 25 18 -10.5 100.0 84 -1 symmetric - - symmetric - - Image
1991 3 26 00 -10.5 100.5 89 -1 symmetric - - symmetric - - Image
1991 3 26 06 -11.1 100.6 95 -1 symmetric - - symmetric - - Image
1991 3 26 12 -11.9 101.1 89 -1 symmetric - - symmetric - - Image
1991 3 26 18 -12.0 101.3 89 -1 symmetric - - symmetric - - Image
1991 3 27 00 -12.1 101.5 89 -1 symmetric - - symmetric - - Image
1991 3 27 06 -12.6 101.6 84 -1 symmetric - - symmetric - - Image
1991 3 27 12 -13.3 101.7 80 -1 symmetric - - symmetric - - Image
1991 3 27 18 -13.4 101.8 74 -1 symmetric - - symmetric - - Image
1991 3 28 00 -13.6 101.8 66 -1 symmetric - - symmetric - - Image
1991 3 28 06 -14.0 100.9 66 -1 symmetric - - symmetric - - Image
1991 3 28 12 -14.2 100.1 66 -1 symmetric - - symmetric - - Image
1991 3 28 18 -14.4 99.3 64 -1 symmetric - - symmetric - - Image
1991 3 29 00 -14.8 98.4 60 -1 symmetric - - symmetric - - Image
1991 3 29 06 -15.4 97.4 54 -1 symmetric - - symmetric - - Image
1991 3 29 12 -15.7 96.5 47 -1 symmetric - - symmetric - - Image
1991 3 29 18 -16.0 95.5 41 -1 symmetric - - symmetric - - Image
1991 3 30 00 -16.2 94.5 37 -1 symmetric - - symmetric - - Image
1991 3 30 06 -16.4 93.8 31 -1 symmetric - - symmetric - - Image
1991 3 30 12 -16.7 93.4 31 -1 symmetric - - symmetric - - Image
1991 3 30 18 -16.9 93.1 27 -1 symmetric - - symmetric - - Image
1991 3 31 00 -17.1 92.8 27 -1 symmetric - - symmetric - - Image
1991 3 31 06 -17.3 92.6 25 -1 symmetric - - symmetric - - Image
< Cyclone 199106 1991 Season Cyclone 199108 >

Help